Time;durP1;ratioP1;P1;durP2;ratioP2;P2;SDS_P1;SDS_P2;PMS_P1;PMS_P2;Temp;Humidity;BMP_temperature;BMP_pressure;BME280_temperature;BME280_humidity;BME280_pressure;Samples;Min_cycle;Max_cycle;Signal;HPM_P1;HPM_P2
2023/03/19 01:43:03;;;;;;;;;;;;;;;;;;;;;
2023/03/19 01:46:12;;;;;;;8.13;3.35;;;15.10;93.00;;;;;;7417564;19;20010;-80
2023/03/19 01:51:51;;;;;;;10.90;3.38;;;15.00;93.10;;;;;;7414060;19;20015;-82
2023/03/19 02:15:47;;;;;;;;;;;;;;;;;;;;;
2023/03/19 02:25:27;;;;;;;;;;;;;;;;;;;;;
2023/03/19 12:14:51;;;;;;;;;;;;;;;;;;;;;
2023/03/19 12:17:36;;;;;;;6.18;2.13;;;13.90;92.40;;;;;;7391645;19;20809;-79
2023/03/19 12:20:33;;;;;;;5.13;1.75;;;13.80;91.60;;;;;;7395423;19;20094;-82
2023/03/19 12:23:11;;;;;;;5.97;2.10;;;14.00;92.40;;;;;;7396348;19;20240;-80
2023/03/19 12:26:22;;;;;;;;;;;;;;;;;;;;;
2023/03/19 12:35:39;;;;;;;5.15;2.17;;;14.60;90.30;;;;;;7373638;19;20066;-82
2023/03/19 12:44:46;;;;;;;4.50;2.70;;;14.90;86.80;;;;;;7402862;19;20001;-82
2023/03/19 14:48:52;;;;;;;4.30;1.35;;;14.60;75.80;;;;;;7416185;19;20034;-82
2023/03/19 14:52:05;;;;;;;5.78;1.40;;;14.40;73.70;;;;;;7423132;19;20006;-82
2023/03/19 14:58:04;;;;;;;10.25;1.80;;;14.50;73.60;;;;;;7423663;19;20013;-83
2023/03/19 15:01:01;;;;;;;4.45;1.42;;;14.40;72.70;;;;;;7417329;19;20011;-83
2023/03/19 15:03:43;;;;;;;5.88;1.20;;;14.20;72.90;;;;;;7419939;19;20027;-83
2023/03/19 15:06:17;;;;;;;4.85;1.52;;;14.40;74.10;;;;;;7421830;19;20015;-84
2023/03/19 15:09:41;;;;;;;;;;;;;;;;;;;;;
2023/03/19 15:12:56;;;;;;;7.78;1.38;;;14.30;75.40;;;;;;7422547;19;20101;-83
2023/03/19 15:15:40;;;;;;;5.07;1.58;;;14.10;75.30;;;;;;7419843;19;20096;-82
2023/03/19 16:41:17;;;;;;;5.32;1.33;;;15.60;72.90;;;;;;4363406;19;10779804;-79
2023/03/19 16:43:50;;;;;;;7.55;1.73;;;15.80;71.80;;;;;;7414201;19;20014;-78
2023/03/19 16:46:21;;;;;;;2.95;1.10;;;15.90;70.20;;;;;;7414655;19;20011;-77
2023/03/19 16:49:00;;;;;;;2.15;1.20;;;16.20;68.50;;;;;;7415248;19;20010;-78
2023/03/19 17:35:35;;;;;;;4.40;1.30;;;14.50;63.80;;;;;;7323185;19;20071;-70
2023/03/19 17:38:07;;;;;;;9.57;1.48;;;14.30;64.70;;;;;;7377771;19;20021;-73
2023/03/19 17:40:39;;;;;;;;;;;14.30;65.50;;;;;;7402563;19;20011;-71
2023/03/19 17:43:13;;;;;;;5.20;1.60;;;13.90;66.20;;;;;;7381513;19;19936;-71
2023/03/19 17:45:47;;;;;;;4.75;1.25;;;13.90;67.00;;;;;;7381450;19;20287;-71
2023/03/19 17:48:21;;;;;;;6.38;1.45;;;14.00;66.90;;;;;;7380723;19;20057;-72
2023/03/19 17:50:56;;;;;;;4.40;1.42;;;14.10;66.90;;;;;;7380832;19;20014;-71
2023/03/19 17:53:25;;;;;;;6.65;1.70;;;14.00;67.90;;;;;;7405750;19;20254;-72
2023/03/19 17:55:54;;;;;;;2.88;0.98;;;13.90;67.80;;;;;;7382331;19;20012;-72
2023/03/19 17:58:24;;;;;;;20.55;9.38;;;13.90;68.90;;;;;;7384504;19;20295;-72
2023/03/19 18:00:56;;;;;;;7.82;2.63;;;14.00;69.50;;;;;;7384683;19;19998;-75
2023/03/19 18:03:32;;;;;;;;;;;14.00;69.70;;;;;;7394878;19;20006;-74
2023/03/19 18:06:20;;;;;;;5.88;2.55;;;14.10;68.90;;;;;;7388088;19;19914;-76
2023/03/19 18:08:57;;;;;;;2.85;1.45;;;14.10;69.30;;;;;;7385215;19;20393;-75
2023/03/19 18:11:59;;;;;;;7.65;1.70;;;14.10;69.10;;;;;;7404797;19;20066;-75
2023/03/19 18:17:49;;;;;;;4.05;1.48;;;14.10;69.80;;;;;;7277890;19;2004350;-76
2023/03/19 18:23:20;;;;;;;7.85;2.40;;;14.00;71.50;;;;;;7341948;19;19911;-76
2023/03/19 18:25:52;;;;;;;6.30;2.30;;;14.00;71.60;;;;;;7407527;19;20040;-76
2023/03/19 18:28:31;;;;;;;;;;;;;;;;;;;;;
2023/03/19 18:31:35;;;;;;;;;;;;;;;;;;;;;
2023/03/19 18:34:27;;;;;;;8.75;2.10;;;14.00;72.10;;;;;;7381967;19;20020;-77
2023/03/19 18:37:07;;;;;;;;;;;;;;;;;;;;;
2023/03/19 18:40:26;;;;;;;;;;;;;;;;;;;;;
2023/03/19 18:52:42;;;;;;;;;;;;;;;;;;;;;
2023/03/19 18:56:08;;;;;;;;;;;;;;;;;;;;;
2023/03/19 18:59:03;;;;;;;6.55;2.42;;;13.60;74.20;;;;;;7424435;19;20014;-80
2023/03/19 19:33:21;;;;;;;13.57;4.80;;;13.50;80.20;;;;;;7390496;19;20021;-78
2023/03/19 19:40:04;;;;;;;;;;;;;;;;;;;;;
2023/03/19 22:50:05;;;;;;;;;;;;;;;;;;;;;
2023/03/19 22:53:30;;;;;;;;;;;;;;;;;;;;;
